createdAt,value
2018-03-03T00:01:39.555Z,23.80
2018-03-03T00:04:07.611Z,23.42
2018-03-03T00:06:35.655Z,23.48
2018-03-03T00:09:03.716Z,23.87
2018-03-03T00:11:31.750Z,23.15
2018-03-03T00:14:00.532Z,23.30
2018-03-03T00:16:28.568Z,22.80
2018-03-03T00:18:56.622Z,22.42
2018-03-03T00:21:24.701Z,23.23
2018-03-03T00:23:52.742Z,23.10
2018-03-03T00:26:20.767Z,21.73
2018-03-03T00:28:48.801Z,23.02
2018-03-03T00:31:17.020Z,22.67
2018-03-03T00:33:46.202Z,22.02
2018-03-03T00:36:14.229Z,22.75
2018-03-03T00:38:42.261Z,22.02
2018-03-03T00:41:10.296Z,21.15
2018-03-03T00:43:38.333Z,21.90
2018-03-03T00:46:07.156Z,22.42
2018-03-03T00:48:35.184Z,22.50
2018-03-03T00:51:03.228Z,22.55
2018-03-03T00:53:31.279Z,22.73
2018-03-03T00:55:59.321Z,22.00
2018-03-03T00:58:27.390Z,22.52
2018-03-03T01:00:55.420Z,21.85
2018-03-03T01:03:23.482Z,21.83
2018-03-03T01:05:51.509Z,21.25
2018-03-03T01:08:19.565Z,21.62
2018-03-03T01:10:47.628Z,21.85
2018-03-03T01:13:15.680Z,21.37
2018-03-03T01:15:43.721Z,21.70
2018-03-03T01:18:11.768Z,21.58
2018-03-03T01:20:39.845Z,22.15
2018-03-03T01:23:07.949Z,21.90
2018-03-03T01:25:35.973Z,21.90
2018-03-03T01:28:04.040Z,21.87
2018-03-03T01:30:32.083Z,21.60
2018-03-03T01:33:00.125Z,21.23
2018-03-03T01:35:28.197Z,20.67
2018-03-03T01:37:56.230Z,21.35
2018-03-03T01:40:24.282Z,22.52
2018-03-03T01:42:52.341Z,21.17
2018-03-03T01:45:20.405Z,22.20
2018-03-03T01:47:48.494Z,20.65
2018-03-03T01:50:16.525Z,21.80
2018-03-03T01:52:44.624Z,20.90
2018-03-03T01:55:12.685Z,21.62
2018-03-03T01:57:40.731Z,22.40
2018-03-03T02:00:08.791Z,21.73
2018-03-03T02:02:36.859Z,21.15
2018-03-03T02:05:04.907Z,21.55
2018-03-03T02:07:32.929Z,21.52
2018-03-03T02:10:01.012Z,20.98
2018-03-03T02:12:29.062Z,21.33
2018-03-03T02:14:57.100Z,20.80
2018-03-03T02:17:25.181Z,20.80
2018-03-03T02:19:53.231Z,21.40
2018-03-03T02:22:21.257Z,21.48
2018-03-03T02:24:49.319Z,21.17
2018-03-03T02:27:17.351Z,21.58
2018-03-03T02:29:45.365Z,20.95
2018-03-03T02:32:13.398Z,21.20
2018-03-03T02:34:41.424Z,20.02
2018-03-03T02:37:09.523Z,21.15
2018-03-03T02:39:37.551Z,20.52
2018-03-03T02:42:05.593Z,20.17
2018-03-03T02:44:34.389Z,20.48
2018-03-03T02:47:02.409Z,20.02
2018-03-03T02:49:30.481Z,19.45
2018-03-03T02:51:58.526Z,21.10
2018-03-03T02:54:26.565Z,20.25
2018-03-03T02:56:55.361Z,21.17
2018-03-03T02:59:23.448Z,19.98
2018-03-03T03:01:51.483Z,19.70
2018-03-03T03:04:19.511Z,20.50
2018-03-03T03:06:47.547Z,21.62
2018-03-03T03:09:16.338Z,19.95
2018-03-03T03:11:44.384Z,20.08
2018-03-03T03:14:12.474Z,20.50
2018-03-03T03:16:40.494Z,20.42
2018-03-03T03:19:08.538Z,20.92
2018-03-03T03:21:36.594Z,20.12
2018-03-03T03:24:05.398Z,20.30
2018-03-03T03:26:33.468Z,20.45
2018-03-03T03:29:01.508Z,21.10
2018-03-03T03:31:29.534Z,20.92
2018-03-03T03:33:57.570Z,20.25
2018-03-03T03:36:26.353Z,19.90
2018-03-03T03:38:54.414Z,20.05
2018-03-03T03:41:22.466Z,20.62
2018-03-03T03:43:50.500Z,21.52
2018-03-03T03:46:18.519Z,20.75
2018-03-03T03:48:46.647Z,19.83
2018-03-03T03:51:14.693Z,20.80
2018-03-03T03:53:42.747Z,19.90
2018-03-03T03:56:11.555Z,20.35
2018-03-03T03:58:39.594Z,20.98
2018-03-03T04:01:07.626Z,19.65
2018-03-03T04:03:35.685Z,20.33
2018-03-03T04:06:03.729Z,19.73
2018-03-03T04:08:32.555Z,18.35
2018-03-03T04:11:00.589Z,17.83
2018-03-03T04:13:28.624Z,18.35
2018-03-03T04:15:56.698Z,18.12
2018-03-03T04:18:24.749Z,18.15
2018-03-03T04:20:52.775Z,18.37
2018-03-03T04:23:21.621Z,16.85
2018-03-03T04:25:49.657Z,17.62
2018-03-03T04:28:17.737Z,16.85
2018-03-03T04:30:45.829Z,17.73
2018-03-03T04:33:13.879Z,17.20
2018-03-03T04:35:41.929Z,16.25
2018-03-03T04:38:09.973Z,16.90
2018-03-03T04:40:38.029Z,17.40
2018-03-03T04:43:06.082Z,16.90
2018-03-03T04:45:34.166Z,17.20
2018-03-03T04:48:02.243Z,17.00
2018-03-03T04:50:30.256Z,17.05
2018-03-03T04:52:59.102Z,17.95
2018-03-03T04:55:27.117Z,17.77
2018-03-03T04:57:55.147Z,17.35
2018-03-03T05:00:23.426Z,17.33
2018-03-03T05:03:05.164Z,16.83
2018-03-03T05:08:41.496Z,17.23
2018-03-03T05:11:09.522Z,16.73
2018-03-03T05:13:47.506Z,17.27
2018-03-03T05:16:19.782Z,16.25
2018-03-03T05:18:53.160Z,16.12
2018-03-03T05:21:26.720Z,16.48
2018-03-03T05:24:00.200Z,16.73
2018-03-03T05:29:39.384Z,15.77
2018-03-03T05:32:12.836Z,16.08
2018-03-03T05:37:49.944Z,15.23
2018-03-03T05:43:25.842Z,16.37
2018-03-03T05:48:59.980Z,15.88
2018-03-03T05:51:37.934Z,16.17
2018-03-03T05:57:25.904Z,15.82
2018-03-03T05:59:59.261Z,15.27
2018-03-03T06:02:32.749Z,15.60
2018-03-03T06:05:19.527Z,15.27
2018-03-03T06:10:54.593Z,15.73
2018-03-03T06:13:23.399Z,16.05
2018-03-03T06:15:51.473Z,16.15
2018-03-03T06:18:19.502Z,15.65
2018-03-03T06:20:47.541Z,15.45
2018-03-03T06:23:15.551Z,15.98
2018-03-03T06:25:43.595Z,16.95
2018-03-03T06:28:11.661Z,16.25
2018-03-03T06:30:39.725Z,16.30
2018-03-03T06:33:07.732Z,15.82
2018-03-03T06:35:35.786Z,16.65
2018-03-03T06:38:03.829Z,17.05
2018-03-03T06:40:31.889Z,16.10
2018-03-03T06:42:59.917Z,17.15
2018-03-03T06:45:27.948Z,15.75
2018-03-03T06:47:55.992Z,16.08
2018-03-03T06:50:24.028Z,15.85
2018-03-03T06:52:52.092Z,15.73
2018-03-03T06:55:20.149Z,18.17
2018-03-03T06:57:48.192Z,16.50
2018-03-03T07:00:16.247Z,19.60
2018-03-03T07:02:44.302Z,29.48
2018-03-03T07:05:13.146Z,17.02
2018-03-03T07:07:41.235Z,16.75
2018-03-03T07:10:09.257Z,16.33
2018-03-03T07:12:37.326Z,32.78
2018-03-03T07:15:09.722Z,18.08
2018-03-03T07:17:37.794Z,16.62
2018-03-03T07:20:05.835Z,19.65
2018-03-03T07:22:33.928Z,21.48
2018-03-03T07:25:01.967Z,19.60
2018-03-03T07:27:30.037Z,19.70
2018-03-03T07:29:58.130Z,19.00
2018-03-03T07:32:26.168Z,19.17
2018-03-03T07:34:54.206Z,19.55
2018-03-03T07:37:22.424Z,17.62
2018-03-03T07:39:50.492Z,17.77
2018-03-03T07:42:18.546Z,18.37
2018-03-03T07:44:46.627Z,19.25
2018-03-03T07:47:14.709Z,21.33
2018-03-03T07:49:42.757Z,18.05
2018-03-03T07:52:10.802Z,18.48
2018-03-03T07:54:38.884Z,22.75
2018-03-03T07:57:06.996Z,18.25
2018-03-03T07:59:35.052Z,18.65
2018-03-03T08:02:03.097Z,17.95
2018-03-03T08:04:31.165Z,17.83
2018-03-03T08:06:59.211Z,17.62
2018-03-03T08:09:27.291Z,18.05
2018-03-03T08:11:55.320Z,16.80
2018-03-03T08:14:23.362Z,17.17
2018-03-03T08:16:51.413Z,17.90
2018-03-03T08:19:20.262Z,17.75
2018-03-03T08:21:48.335Z,18.02
2018-03-03T08:24:16.420Z,17.00
2018-03-03T08:26:44.474Z,23.17
2018-03-03T08:29:12.513Z,31.58
2018-03-03T08:31:40.565Z,39.63
2018-03-03T08:34:08.647Z,43.35
2018-03-03T08:36:36.700Z,46.35
2018-03-03T08:39:04.737Z,42.17
2018-03-03T08:41:32.857Z,44.38
2018-03-03T08:44:00.931Z,46.37
2018-03-03T08:46:29.040Z,42.83
2018-03-03T08:48:57.054Z,44.28
2018-03-03T08:51:25.139Z,46.70
2018-03-03T08:53:53.179Z,52.47
2018-03-03T08:56:21.222Z,50.65
2018-03-03T08:58:49.299Z,48.00
2018-03-03T09:01:17.386Z,50.88
2018-03-03T09:03:45.449Z,48.83
2018-03-03T09:06:13.569Z,48.80
2018-03-03T09:08:41.683Z,49.67
2018-03-03T09:11:09.727Z,38.85
2018-03-03T09:13:37.806Z,40.83
2018-03-03T09:16:05.904Z,47.72
2018-03-03T09:18:33.950Z,48.60
2018-03-03T09:21:02.049Z,46.40
2018-03-03T09:23:30.124Z,49.28
2018-03-03T09:25:58.210Z,49.38
2018-03-03T09:28:26.280Z,53.80
2018-03-03T09:30:54.359Z,54.53
2018-03-03T09:33:22.436Z,55.08
2018-03-03T09:35:50.498Z,55.17
2018-03-03T09:38:18.578Z,53.45
2018-03-03T09:40:47.403Z,55.55
2018-03-03T09:43:15.452Z,55.70
2018-03-03T09:45:43.569Z,54.80
2018-03-03T09:48:11.616Z,56.85
2018-03-03T09:50:39.664Z,55.28
2018-03-03T09:53:07.720Z,57.92
2018-03-03T09:55:35.740Z,58.30
2018-03-03T09:58:03.834Z,57.97
2018-03-03T10:00:31.858Z,56.30
2018-03-03T10:02:59.928Z,56.08
2018-03-03T10:05:27.970Z,58.53
2018-03-03T10:07:56.015Z,56.80
2018-03-03T10:10:24.080Z,56.22
2018-03-03T10:12:52.158Z,54.67
2018-03-03T10:15:20.263Z,44.60
2018-03-03T10:17:48.319Z,41.55
2018-03-03T10:20:16.446Z,40.33
2018-03-03T10:22:45.236Z,39.20
2018-03-03T10:25:13.261Z,38.13
2018-03-03T10:27:41.323Z,37.90
2018-03-03T10:30:09.365Z,36.13
2018-03-03T10:32:38.195Z,35.88
2018-03-03T10:35:06.287Z,34.22
2018-03-03T10:37:34.325Z,36.95
2018-03-03T10:40:02.364Z,34.78
2018-03-03T10:42:30.427Z,33.88
2018-03-03T10:44:58.510Z,34.22
2018-03-03T10:47:26.570Z,33.97
2018-03-03T10:49:54.611Z,33.33
2018-03-03T10:52:22.679Z,33.15
2018-03-03T10:54:50.754Z,33.97
2018-03-03T10:57:18.866Z,37.05
2018-03-03T10:59:46.905Z,41.17
2018-03-03T11:02:14.964Z,44.60
2018-03-03T11:04:43.023Z,47.42
2018-03-03T11:07:11.113Z,51.92
2018-03-03T11:09:39.194Z,64.07
2018-03-03T11:12:07.263Z,61.40
2018-03-03T11:14:35.323Z,68.20
2018-03-03T11:17:03.378Z,69.80
2018-03-03T11:19:31.420Z,75.47
2018-03-03T11:22:00.260Z,77.62
2018-03-03T11:24:28.352Z,75.95
2018-03-03T11:26:56.422Z,81.93
2018-03-03T11:29:24.480Z,84.03
2018-03-03T11:31:52.542Z,82.30
2018-03-03T11:34:20.640Z,79.90
2018-03-03T11:36:48.743Z,89.05
2018-03-03T11:39:17.651Z,87.05
2018-03-03T11:41:45.733Z,97.57
2018-03-03T11:44:13.800Z,89.18
2018-03-03T11:46:41.859Z,88.87
2018-03-03T11:49:09.908Z,85.35
2018-03-03T11:51:38.747Z,85.78
2018-03-03T11:54:06.822Z,67.30
2018-03-03T11:56:34.872Z,67.72
2018-03-03T11:59:02.976Z,75.90
2018-03-03T12:01:31.063Z,78.10
2018-03-03T12:03:59.162Z,79.82
2018-03-03T12:06:27.240Z,77.62
2018-03-03T12:08:56.075Z,77.40
2018-03-03T12:11:24.199Z,79.00
2018-03-03T12:13:52.261Z,80.00
2018-03-03T12:16:20.276Z,76.28
2018-03-03T12:18:48.380Z,76.72
2018-03-03T12:21:16.440Z,74.28
2018-03-03T12:23:44.512Z,73.68
2018-03-03T12:26:12.569Z,71.50
2018-03-03T12:28:40.607Z,73.47
2018-03-03T12:31:08.690Z,71.55
2018-03-03T12:33:36.779Z,74.47
2018-03-03T12:36:04.845Z,74.12
2018-03-03T12:38:32.899Z,72.82
2018-03-03T12:41:00.953Z,72.20
2018-03-03T12:43:29.043Z,72.35
2018-03-03T12:45:57.105Z,69.37
2018-03-03T12:48:25.148Z,67.30
2018-03-03T12:50:53.189Z,66.68
2018-03-03T12:53:21.260Z,70.47
2018-03-03T12:55:50.171Z,74.50
2018-03-03T12:58:18.260Z,71.53
2018-03-03T13:00:46.368Z,69.45
2018-03-03T13:03:14.409Z,74.22
2018-03-03T13:05:42.461Z,69.70
2018-03-03T13:08:10.506Z,71.03
2018-03-03T13:10:38.606Z,72.57
2018-03-03T13:13:06.665Z,68.90
2018-03-03T13:15:34.838Z,75.72
2018-03-03T13:18:02.873Z,72.12
2018-03-03T13:20:30.960Z,73.97
2018-03-03T13:22:58.993Z,75.43
2018-03-03T13:25:27.012Z,71.32
2018-03-03T13:27:55.111Z,73.53
2018-03-03T13:30:23.167Z,75.70
2018-03-03T13:32:51.189Z,75.15
2018-03-03T13:35:19.236Z,74.80
2018-03-03T13:37:47.288Z,73.30
2018-03-03T13:40:15.354Z,74.93
2018-03-03T13:42:43.401Z,73.32
2018-03-03T13:45:11.419Z,76.70
2018-03-03T13:47:39.464Z,74.25
2018-03-03T13:50:07.516Z,72.75
2018-03-03T13:52:36.349Z,71.97
2018-03-03T13:55:04.384Z,76.07
2018-03-03T13:57:32.425Z,73.57
2018-03-03T14:00:00.460Z,75.32
2018-03-03T14:02:28.494Z,72.70
2018-03-03T14:04:57.319Z,74.85
2018-03-03T14:07:25.368Z,73.70
2018-03-03T14:09:53.390Z,75.00
2018-03-03T14:12:21.441Z,77.60
2018-03-03T14:14:49.528Z,76.12
2018-03-03T14:17:17.605Z,77.22
2018-03-03T14:19:45.710Z,74.53
2018-03-03T14:22:13.772Z,73.43
2018-03-03T14:24:41.857Z,76.07
2018-03-03T14:27:09.910Z,74.50
2018-03-03T14:29:37.970Z,75.72
2018-03-03T14:32:06.059Z,76.20
2018-03-03T14:34:34.096Z,76.97
2018-03-03T14:37:02.147Z,75.95
2018-03-03T14:39:30.210Z,78.68
2018-03-03T14:41:58.275Z,76.65
2018-03-03T14:44:26.344Z,76.40
2018-03-03T14:46:54.425Z,75.37
2018-03-03T14:49:22.499Z,76.05
2018-03-03T14:51:50.531Z,77.95
2018-03-03T14:54:19.370Z,77.28
2018-03-03T14:56:47.435Z,77.82
2018-03-03T14:59:15.476Z,78.32
2018-03-03T15:01:43.559Z,78.57
2018-03-03T15:04:11.623Z,77.68
2018-03-03T15:06:39.663Z,75.20
2018-03-03T15:09:07.704Z,76.75
2018-03-03T15:11:35.744Z,73.85
2018-03-03T15:14:04.564Z,77.18
2018-03-03T15:16:32.594Z,76.75
2018-03-03T15:19:00.632Z,77.87
2018-03-03T15:21:28.688Z,76.03
2018-03-03T15:23:56.717Z,77.68
2018-03-03T15:26:25.530Z,75.18
2018-03-03T15:28:53.564Z,76.55
2018-03-03T15:31:22.130Z,75.03
2018-03-03T15:34:03.556Z,79.55
2018-03-03T15:36:32.396Z,74.80
2018-03-03T15:39:00.472Z,76.90
2018-03-03T15:41:28.495Z,77.25
2018-03-03T15:44:00.139Z,76.00
2018-03-03T15:46:28.945Z,77.97
2018-03-03T15:48:56.994Z,80.05
2018-03-03T15:51:25.049Z,80.50
2018-03-03T15:53:53.107Z,76.45
2018-03-03T15:56:21.156Z,79.62
2018-03-03T15:58:49.213Z,78.65
2018-03-03T16:01:17.326Z,81.50
2018-03-03T16:03:45.390Z,78.43
2018-03-03T16:06:13.427Z,78.95
2018-03-03T16:08:41.506Z,81.03
2018-03-03T16:11:09.552Z,79.90
2018-03-03T16:13:37.607Z,79.80
2018-03-03T16:16:05.665Z,78.45
2018-03-03T16:18:33.784Z,79.68
2018-03-03T16:21:07.699Z,75.30
2018-03-03T16:23:35.774Z,77.80
2018-03-03T16:26:03.849Z,75.30
2018-03-03T16:28:31.891Z,75.90
2018-03-03T16:30:59.955Z,64.50
2018-03-03T16:33:27.983Z,58.58
2018-03-03T16:35:56.059Z,59.95
2018-03-03T16:38:24.105Z,65.30
2018-03-03T16:40:52.143Z,63.78
2018-03-03T16:43:20.955Z,65.57
2018-03-03T16:45:49.014Z,68.03
2018-03-03T16:48:17.092Z,64.47
2018-03-03T16:50:48.580Z,63.28
2018-03-03T16:53:16.631Z,64.15
2018-03-03T16:55:44.678Z,65.37
2018-03-03T16:58:13.472Z,63.33
2018-03-03T17:00:41.544Z,64.30
2018-03-03T17:03:09.608Z,66.87
2018-03-03T17:05:37.732Z,71.85
2018-03-03T17:08:05.816Z,73.07
2018-03-03T17:10:33.881Z,74.37
2018-03-03T17:13:01.937Z,77.22
2018-03-03T17:15:29.971Z,77.97
2018-03-03T17:17:58.089Z,84.20
2018-03-03T17:20:26.159Z,81.30
2018-03-03T17:22:54.273Z,61.75
2018-03-03T17:25:22.350Z,76.30
2018-03-03T17:27:50.427Z,88.40
2018-03-03T17:30:19.282Z,82.82
2018-03-03T17:32:47.368Z,76.85
2018-03-03T17:35:15.424Z,77.40
2018-03-03T17:37:43.498Z,101.15
2018-03-03T17:40:11.576Z,96.05
2018-03-03T17:42:39.665Z,102.00
2018-03-03T17:45:07.744Z,101.75
2018-03-03T17:47:35.817Z,97.37
2018-03-03T17:50:04.632Z,100.53
2018-03-03T17:52:32.688Z,101.15
2018-03-03T17:55:00.751Z,100.30
2018-03-03T17:57:28.840Z,102.25
2018-03-03T17:59:56.936Z,101.45
2018-03-03T18:02:25.009Z,99.80
2018-03-03T18:04:53.072Z,101.10
2018-03-03T18:07:21.133Z,104.70
2018-03-03T18:09:49.215Z,103.38
2018-03-03T18:12:17.295Z,100.45
2018-03-03T18:14:45.403Z,102.68
2018-03-03T18:17:13.460Z,101.35
2018-03-03T18:19:41.515Z,98.50
2018-03-03T18:22:09.591Z,102.65
2018-03-03T18:24:37.698Z,102.40
2018-03-03T18:27:05.770Z,100.00
2018-03-03T18:29:33.840Z,98.85
2018-03-03T18:32:01.941Z,100.53
2018-03-03T18:34:29.999Z,108.70
2018-03-03T18:36:58.060Z,100.95
2018-03-03T18:39:26.202Z,102.28
2018-03-03T18:41:55.004Z,109.68
2018-03-03T18:44:23.079Z,107.57
2018-03-03T18:46:51.130Z,107.93
2018-03-03T18:49:19.196Z,113.35
2018-03-03T18:51:47.252Z,126.25
2018-03-03T18:54:15.328Z,119.93
2018-03-03T18:56:43.464Z,129.48
2018-03-03T18:59:11.510Z,126.22
2018-03-03T19:01:39.589Z,121.50
2018-03-03T19:04:07.699Z,128.45
2018-03-03T19:06:35.772Z,139.10
2018-03-03T19:09:04.108Z,129.35
2018-03-03T19:11:32.168Z,133.68
2018-03-03T19:14:00.225Z,133.95
2018-03-03T19:16:28.339Z,135.48
2018-03-03T19:18:56.392Z,139.77
2018-03-03T19:21:24.448Z,149.82
2018-03-03T19:23:52.548Z,140.30
2018-03-03T19:26:20.633Z,137.70
2018-03-03T19:28:48.743Z,119.80
2018-03-03T19:31:16.828Z,134.07
2018-03-03T19:33:44.944Z,151.35
2018-03-03T19:36:13.032Z,139.98
2018-03-03T19:38:41.092Z,147.48
2018-03-03T19:41:09.200Z,146.20
2018-03-03T19:43:37.288Z,145.90
2018-03-03T19:46:06.114Z,169.20
2018-03-03T19:48:34.180Z,154.10
2018-03-03T19:51:02.242Z,151.80
2018-03-03T19:53:31.078Z,158.07
2018-03-03T19:55:59.134Z,166.50
2018-03-03T19:58:27.226Z,155.65
2018-03-03T20:00:55.340Z,156.55
2018-03-03T20:03:23.413Z,171.45
2018-03-03T20:05:51.483Z,170.10
2018-03-03T20:08:19.549Z,156.55
2018-03-03T20:10:47.628Z,167.68
2018-03-03T20:13:15.694Z,164.15
2018-03-03T20:15:43.761Z,166.40
2018-03-03T20:18:11.844Z,177.82
2018-03-03T20:20:39.932Z,168.60
2018-03-03T20:23:07.996Z,188.77
2018-03-03T20:25:36.053Z,167.77
2018-03-03T20:28:04.108Z,171.80
2018-03-03T20:30:32.175Z,173.95
2018-03-03T20:33:00.231Z,177.12
2018-03-03T20:35:28.321Z,174.32
2018-03-03T20:37:56.379Z,193.40
2018-03-03T20:40:24.407Z,192.52
2018-03-03T20:42:52.450Z,192.82
2018-03-03T20:45:21.299Z,186.40
2018-03-03T20:47:49.383Z,202.75
2018-03-03T20:50:17.457Z,193.73
2018-03-03T20:52:45.558Z,192.75
2018-03-03T20:55:13.595Z,187.93
2018-03-03T20:57:41.650Z,191.50
2018-03-03T21:00:10.511Z,178.98
2018-03-03T21:02:38.596Z,172.62
2018-03-03T21:05:06.689Z,174.43
2018-03-03T21:07:34.759Z,171.57
2018-03-03T21:10:02.864Z,168.57
2018-03-03T21:12:32.821Z,162.60
2018-03-03T21:15:00.883Z,156.55
2018-03-03T21:17:29.704Z,149.38
2018-03-03T21:19:57.782Z,148.77
2018-03-03T21:22:25.876Z,141.80
2018-03-03T21:24:53.923Z,143.90
2018-03-03T21:27:22.014Z,122.37
2018-03-03T21:29:50.037Z,120.10
2018-03-03T21:32:18.083Z,124.78
2018-03-03T21:34:46.140Z,132.57
2018-03-03T21:37:14.237Z,230.00
2018-03-03T21:39:42.322Z,214.65
2018-03-03T21:42:10.402Z,201.32
2018-03-03T21:44:38.484Z,258.35
2018-03-03T21:47:06.532Z,249.43
2018-03-03T21:49:34.590Z,252.60
2018-03-03T21:52:02.647Z,261.62
2018-03-03T21:54:30.744Z,298.83
2018-03-03T21:56:58.849Z,308.58
2018-03-03T21:59:27.684Z,313.33
2018-03-03T22:01:55.739Z,347.52
2018-03-03T22:04:23.810Z,348.70
2018-03-03T22:06:51.884Z,337.05
2018-03-03T22:09:19.970Z,384.00
2018-03-03T22:11:48.045Z,381.98
2018-03-03T22:14:16.089Z,355.73
2018-03-03T22:16:44.212Z,405.52
2018-03-03T22:19:12.297Z,397.95
2018-03-03T22:21:40.366Z,432.90
2018-03-03T22:24:08.472Z,371.27
2018-03-03T22:26:36.548Z,363.00
2018-03-03T22:29:04.648Z,400.58
2018-03-03T22:31:32.719Z,466.98
2018-03-03T22:34:00.781Z,498.92
2018-03-03T22:36:28.859Z,549.85
2018-03-03T22:38:56.937Z,555.58
2018-03-03T22:41:25.041Z,555.97
2018-03-03T22:43:53.871Z,565.30
2018-03-03T22:46:21.931Z,576.47
2018-03-03T22:48:50.002Z,608.95
2018-03-03T22:51:18.073Z,617.15
2018-03-03T22:53:46.157Z,625.55
2018-03-03T22:56:14.230Z,647.00
2018-03-03T22:58:42.300Z,666.00
2018-03-03T23:01:10.443Z,687.50
2018-03-03T23:03:38.522Z,766.80
2018-03-03T23:06:07.365Z,782.50
2018-03-03T23:08:35.416Z,743.90
2018-03-03T23:11:03.490Z,794.83
2018-03-03T23:13:31.578Z,794.13
2018-03-03T23:15:59.679Z,789.85
2018-03-03T23:18:27.785Z,782.35
2018-03-03T23:20:55.818Z,809.55
2018-03-03T23:23:23.869Z,771.42
2018-03-03T23:25:51.923Z,807.78
2018-03-03T23:28:19.964Z,787.05
2018-03-03T23:30:48.836Z,792.85
2018-03-03T23:33:16.877Z,788.83
2018-03-03T23:35:44.934Z,821.00
2018-03-03T23:38:13.002Z,812.83
2018-03-03T23:40:41.048Z,817.03
2018-03-03T23:43:09.127Z,828.83
2018-03-03T23:45:37.165Z,840.30
2018-03-03T23:48:05.201Z,855.05
2018-03-03T23:50:33.253Z,864.35
2018-03-03T23:53:01.300Z,866.92
2018-03-03T23:55:29.392Z,867.20
2018-03-03T23:57:57.459Z,860.47
